Time;durP1;ratioP1;P1;durP2;ratioP2;P2;SDS_P1;SDS_P2;PMS_P1;PMS_P2;Temp;Humidity;BMP_temperature;BMP_pressure;BME280_temperature;BME280_humidity;BME280_pressure;Samples;Min_cycle;Max_cycle;Signal;HPM_P1;HPM_P2
2022/01/15 00:01:14;;;;;;;24.80;15.90;;;-1.50;99.90;;;;;;4998084;28;20263;-90
2022/01/15 00:06:09;;;;;;;21.48;15.40;;;-1.60;99.90;;;;;;5051408;28;20233;-72
2022/01/15 00:08:36;;;;;;;21.13;14.35;;;-1.70;99.90;;;;;;5053011;28;20660;-73
2022/01/15 00:11:04;;;;;;;20.70;15.15;;;-1.70;99.90;;;;;;5053661;28;20652;-73
2022/01/15 00:13:31;;;;;;;19.20;15.30;;;-1.70;99.90;;;;;;5053606;28;20225;-73
2022/01/15 00:16:06;;;;;;;19.75;14.90;;;-1.70;99.90;;;;;;5073805;28;20239;-72
2022/01/15 00:18:46;;;;;;;29.10;16.25;;;-1.70;99.90;;;;;;5075307;28;20207;-73
2022/01/15 00:21:15;;;;;;;24.85;15.57;;;-1.70;99.90;;;;;;5074857;28;20295;-73
2022/01/15 00:23:43;;;;;;;21.15;15.95;;;-1.70;99.90;;;;;;5073223;28;20196;-72
2022/01/15 00:26:11;;;;;;;18.75;14.98;;;-1.80;99.90;;;;;;5073033;28;20766;-73
2022/01/15 00:28:38;;;;;;;19.00;14.00;;;-1.80;99.90;;;;;;5073316;28;20216;-73
2022/01/15 00:31:05;;;;;;;18.65;13.90;;;-1.80;99.90;;;;;;5073115;28;20208;-72
2022/01/15 00:33:33;;;;;;;19.73;14.52;;;-1.80;99.90;;;;;;5072543;28;20250;-74
2022/01/15 00:36:00;;;;;;;20.58;14.43;;;-1.80;99.90;;;;;;5073321;28;20200;-73
2022/01/15 00:38:27;;;;;;;18.73;13.15;;;-1.80;99.90;;;;;;5073153;28;20196;-73
2022/01/15 00:40:54;;;;;;;21.25;14.55;;;-1.90;99.90;;;;;;5072902;28;20682;-71
2022/01/15 00:43:24;;;;;;;20.20;14.77;;;-1.80;99.90;;;;;;5071581;28;20200;-71
2022/01/15 00:45:51;;;;;;;20.58;14.48;;;-1.90;99.90;;;;;;5072581;28;20201;-72
2022/01/15 00:48:17;;;;;;;20.17;13.98;;;-1.90;99.90;;;;;;5072318;28;20211;-71
2022/01/15 00:50:44;;;;;;;21.80;14.23;;;-1.90;99.90;;;;;;5062444;28;20218;-71
2022/01/15 00:53:11;;;;;;;22.13;15.30;;;-1.90;99.90;;;;;;5061989;28;20219;-72
2022/01/15 00:55:38;;;;;;;19.63;14.10;;;-1.80;99.90;;;;;;5060885;28;20209;-72
2022/01/15 00:58:05;;;;;;;21.48;14.13;;;-1.90;99.90;;;;;;5062577;28;20219;-72
2022/01/15 01:00:33;;;;;;;17.88;13.75;;;-1.90;99.90;;;;;;5062519;28;20201;-71
2022/01/15 01:03:00;;;;;;;22.42;14.27;;;-1.80;99.90;;;;;;5060266;28;20197;-71
2022/01/15 01:05:27;;;;;;;21.90;14.63;;;-1.90;99.90;;;;;;5061826;28;20730;-72
2022/01/15 01:07:54;;;;;;;23.77;13.90;;;-1.90;99.90;;;;;;5062371;28;20196;-71
2022/01/15 01:10:48;;;;;;;21.20;13.35;;;-2.00;99.90;;;;;;5060740;28;20193;-72
2022/01/15 01:13:32;;;;;;;19.13;13.27;;;-2.00;99.90;;;;;;5062141;28;20217;-73
2022/01/15 01:24:15;;;;;;;20.08;13.30;;;-2.10;99.90;;;;;;5051666;28;20220;-73
2022/01/15 01:26:46;;;;;;;20.83;14.57;;;-2.10;99.90;;;;;;5062407;28;20193;-72
2022/01/15 01:29:25;;;;;;;22.45;14.07;;;-2.10;99.90;;;;;;5062273;28;20201;-73
2022/01/15 01:32:00;;;;;;;21.88;14.55;;;-2.10;99.90;;;;;;5061505;28;20197;-73
2022/01/15 01:34:31;;;;;;;22.73;14.70;;;-2.10;99.90;;;;;;5051900;28;20227;-75
2022/01/15 01:37:03;;;;;;;22.52;15.57;;;-2.10;99.90;;;;;;5052536;28;20224;-72
2022/01/15 01:39:39;;;;;;;16.77;13.50;;;-2.10;99.90;;;;;;5055603;28;20243;-74
2022/01/15 01:42:13;;;;;;;18.55;13.45;;;-2.10;99.90;;;;;;5056833;28;20239;-73
2022/01/15 01:44:41;;;;;;;19.00;13.50;;;-2.20;99.90;;;;;;5055332;28;20209;-73
2022/01/15 01:47:21;;;;;;;17.85;13.95;;;-2.20;99.90;;;;;;5051605;28;20198;-73
2022/01/15 01:49:48;;;;;;;17.45;13.27;;;-2.20;99.90;;;;;;5050992;28;20204;-73
2022/01/15 01:52:15;;;;;;;21.73;13.43;;;-2.20;99.90;;;;;;5050491;28;20201;-73
2022/01/15 01:54:42;;;;;;;22.88;15.15;;;-2.20;99.90;;;;;;5059738;28;20213;-73
2022/01/15 01:57:08;;;;;;;19.17;14.52;;;-2.20;99.90;;;;;;5060194;28;20201;-73
2022/01/15 01:59:37;;;;;;;20.45;13.65;;;-2.20;99.90;;;;;;5060229;28;20574;-73
2022/01/15 02:02:04;;;;;;;17.95;14.18;;;-2.20;99.90;;;;;;5060778;28;20193;-74
2022/01/15 02:04:33;;;;;;;22.83;14.15;;;-2.20;99.90;;;;;;5060061;28;20224;-73
2022/01/15 02:07:01;;;;;;;21.00;13.65;;;-2.20;99.90;;;;;;5062184;28;20266;-73
2022/01/15 02:09:27;;;;;;;21.20;13.60;;;-2.20;99.90;;;;;;5059620;28;20192;-74
2022/01/15 02:11:54;;;;;;;19.17;14.30;;;-2.30;99.90;;;;;;5061225;28;20197;-74
2022/01/15 02:14:28;;;;;;;26.15;15.70;;;-2.20;99.90;;;;;;5059160;28;20217;-74
2022/01/15 02:16:55;;;;;;;25.45;16.60;;;-2.20;99.90;;;;;;5059978;28;20246;-73
2022/01/15 02:19:22;;;;;;;21.73;14.88;;;-2.20;99.90;;;;;;5059602;28;20193;-74
2022/01/15 02:24:34;;;;;;;20.35;14.07;;;-2.20;99.90;;;;;;5061029;28;20731;-73
2022/01/15 02:27:01;;;;;;;18.10;14.40;;;-2.20;99.90;;;;;;5059151;28;20208;-73
2022/01/15 02:29:28;;;;;;;22.42;14.40;;;-2.20;99.90;;;;;;5061018;28;20204;-73
2022/01/15 02:31:55;;;;;;;22.52;13.25;;;-2.20;99.90;;;;;;5061706;28;20197;-73
2022/01/15 02:34:22;;;;;;;18.92;13.30;;;-2.20;99.90;;;;;;5059221;28;20224;-73
2022/01/15 02:36:50;;;;;;;17.33;12.60;;;-2.20;99.90;;;;;;5060359;28;20197;-73
2022/01/15 02:39:16;;;;;;;17.50;12.85;;;-2.30;99.90;;;;;;5061204;28;20200;-74
2022/01/15 02:41:43;;;;;;;18.23;14.35;;;-2.30;99.90;;;;;;5059863;28;20561;-74
2022/01/15 02:44:16;;;;;;;20.02;14.73;;;-2.20;99.90;;;;;;5059776;28;20223;-74
2022/01/15 02:49:28;;;;;;;20.08;14.13;;;-2.30;99.90;;;;;;5058730;28;20580;-75
2022/01/15 02:51:56;;;;;;;20.63;14.48;;;-2.30;99.90;;;;;;5061148;28;20707;-74
2022/01/15 02:54:23;;;;;;;18.02;14.15;;;-2.30;99.90;;;;;;5061448;28;20220;-74
2022/01/15 02:56:50;;;;;;;20.95;13.80;;;-2.40;99.90;;;;;;5060174;28;20200;-74
2022/01/15 02:59:19;;;;;;;23.98;13.27;;;-2.40;99.90;;;;;;5059952;28;20193;-73
2022/01/15 03:01:48;;;;;;;18.92;13.13;;;-2.40;99.90;;;;;;5059864;28;20215;-74
2022/01/15 03:04:15;;;;;;;18.95;13.82;;;-2.40;99.90;;;;;;5058680;28;20266;-74
2022/01/15 03:06:42;;;;;;;19.27;12.77;;;-2.40;99.90;;;;;;5061293;28;20792;-74
2022/01/15 03:09:10;;;;;;;18.85;13.48;;;-2.40;99.90;;;;;;5058483;28;20205;-74
2022/01/15 03:11:36;;;;;;;22.60;14.60;;;-2.40;99.90;;;;;;5061758;28;20720;-73
2022/01/15 03:14:03;;;;;;;15.63;13.55;;;-2.50;99.90;;;;;;5062205;28;20224;-74
2022/01/15 03:16:30;;;;;;;18.42;12.40;;;-2.50;99.90;;;;;;5064708;28;20664;-73
2022/01/15 03:18:57;;;;;;;17.52;12.93;;;-2.50;99.90;;;;;;5064792;28;21251;-73
2022/01/15 03:21:24;;;;;;;19.95;14.20;;;-2.50;99.90;;;;;;5063214;28;20255;-73
2022/01/15 03:23:51;;;;;;;19.83;12.80;;;-2.50;99.90;;;;;;5064057;28;20205;-74
2022/01/15 03:26:19;;;;;;;21.10;12.98;;;-2.50;99.90;;;;;;5065248;28;20215;-74
2022/01/15 03:28:46;;;;;;;22.70;13.57;;;-2.50;99.90;;;;;;5063360;28;20197;-75
2022/01/15 03:31:13;;;;;;;16.77;13.25;;;-2.50;99.90;;;;;;5063733;28;20547;-74
2022/01/15 03:33:40;;;;;;;18.55;13.27;;;-2.50;99.90;;;;;;5064162;28;20232;-74
2022/01/15 03:36:07;;;;;;;18.58;13.20;;;-2.60;99.90;;;;;;5063718;28;20193;-74
2022/01/15 03:38:34;;;;;;;19.23;14.30;;;-2.60;99.90;;;;;;5063538;28;20197;-73
2022/01/15 03:41:01;;;;;;;20.73;13.52;;;-2.60;99.90;;;;;;5065508;28;20197;-74
2022/01/15 03:43:29;;;;;;;19.63;13.95;;;-2.60;99.90;;;;;;5064245;28;20196;-74
2022/01/15 03:45:56;;;;;;;17.38;13.43;;;-2.60;99.90;;;;;;5062910;28;20679;-74
2022/01/15 03:48:24;;;;;;;20.95;13.30;;;-2.60;99.90;;;;;;5064477;28;20189;-74
2022/01/15 03:50:51;;;;;;;19.30;13.23;;;-2.60;99.90;;;;;;5063628;28;20229;-74
2022/01/15 03:53:20;;;;;;;17.30;12.68;;;-2.60;99.90;;;;;;5061688;28;20228;-74
2022/01/15 03:55:46;;;;;;;21.33;14.50;;;-2.60;99.90;;;;;;5063679;28;20777;-74
2022/01/15 03:58:13;;;;;;;20.00;13.57;;;-2.60;99.90;;;;;;5063807;28;20202;-74
2022/01/15 04:00:41;;;;;;;19.48;13.07;;;-2.60;99.90;;;;;;5062780;28;20201;-74
2022/01/15 04:03:08;;;;;;;20.55;13.30;;;-2.60;99.90;;;;;;5062711;28;20695;-74
2022/01/15 04:05:35;;;;;;;21.48;13.82;;;-2.60;99.90;;;;;;5063438;28;20704;-73
2022/01/15 04:08:02;;;;;;;20.65;13.00;;;-2.60;99.90;;;;;;5062082;28;20204;-74
2022/01/15 04:10:29;;;;;;;20.80;13.80;;;-2.60;99.90;;;;;;5063129;28;20203;-73
2022/01/15 04:12:55;;;;;;;15.35;12.32;;;-2.60;99.90;;;;;;5063625;28;20227;-74
2022/01/15 04:15:22;;;;;;;18.17;12.98;;;-2.60;99.90;;;;;;5061942;28;20696;-74
2022/01/15 04:17:51;;;;;;;19.73;13.35;;;-2.60;99.90;;;;;;5071941;28;20197;-74
2022/01/15 04:20:21;;;;;;;23.95;13.85;;;-2.60;99.90;;;;;;5078743;28;20551;-74
2022/01/15 04:22:49;;;;;;;16.92;12.90;;;-2.60;99.90;;;;;;5081992;28;20242;-75
2022/01/15 04:25:17;;;;;;;17.40;12.32;;;-2.70;99.90;;;;;;5078436;28;20216;-74
2022/01/15 04:27:44;;;;;;;21.60;13.55;;;-2.70;99.90;;;;;;5068757;28;20669;-74
2022/01/15 04:30:12;;;;;;;19.00;12.82;;;-2.70;99.90;;;;;;5063282;28;20770;-73
2022/01/15 04:32:39;;;;;;;19.75;13.45;;;-2.70;99.90;;;;;;5063594;28;20275;-73
2022/01/15 04:35:08;;;;;;;17.70;13.02;;;-2.80;99.90;;;;;;5061874;28;20252;-73
2022/01/15 04:37:38;;;;;;;17.08;11.93;;;-2.80;99.90;;;;;;5061636;28;20671;-74
2022/01/15 04:40:07;;;;;;;17.90;12.75;;;-2.80;99.90;;;;;;5063118;28;20193;-74
2022/01/15 04:42:34;;;;;;;19.38;14.00;;;-2.80;99.90;;;;;;5062438;28;20652;-74
2022/01/15 04:45:03;;;;;;;16.00;12.48;;;-2.80;99.90;;;;;;5061388;28;20220;-74
2022/01/15 04:47:30;;;;;;;18.20;12.38;;;-2.80;99.90;;;;;;5062006;28;20224;-73
2022/01/15 04:49:58;;;;;;;18.92;12.98;;;-2.80;99.90;;;;;;5057739;28;20204;-74
2022/01/15 04:52:26;;;;;;;20.73;11.93;;;-2.70;99.90;;;;;;5054428;28;20235;-74
2022/01/15 04:54:53;;;;;;;16.60;11.90;;;-2.80;99.90;;;;;;5060370;28;20227;-74
2022/01/15 04:57:19;;;;;;;22.40;13.27;;;-2.80;99.90;;;;;;5062349;28;20193;-74
2022/01/15 04:59:46;;;;;;;16.92;13.00;;;-2.80;99.90;;;;;;5061252;28;20597;-73
2022/01/15 05:02:13;;;;;;;15.63;12.65;;;-2.90;99.90;;;;;;5063448;28;20220;-74
2022/01/15 05:04:40;;;;;;;15.30;12.10;;;-2.90;99.90;;;;;;5061470;28;20223;-74
2022/01/15 05:07:07;;;;;;;17.50;13.18;;;-2.90;99.90;;;;;;5057273;28;20205;-74
2022/01/15 05:09:35;;;;;;;21.83;13.85;;;-3.00;99.90;;;;;;5052549;28;20205;-74
2022/01/15 05:12:08;;;;;;;18.50;12.20;;;-3.00;99.90;;;;;;5052224;28;20205;-74
2022/01/15 05:14:35;;;;;;;17.90;12.77;;;-3.00;99.90;;;;;;5051819;28;20232;-74
2022/01/15 05:17:02;;;;;;;16.98;12.57;;;-3.00;99.90;;;;;;5051988;28;20583;-74
2022/01/15 05:19:29;;;;;;;15.35;11.32;;;-3.00;99.90;;;;;;5051909;28;20205;-74
2022/01/15 05:21:57;;;;;;;16.17;11.73;;;-3.00;99.90;;;;;;5052244;28;20216;-74
2022/01/15 05:24:25;;;;;;;15.32;10.90;;;-3.00;99.90;;;;;;5052007;28;20244;-74
2022/01/15 05:26:54;;;;;;;15.38;11.65;;;-3.00;99.90;;;;;;5052101;28;20262;-74
2022/01/15 05:29:20;;;;;;;16.98;11.57;;;-3.00;99.90;;;;;;5051937;28;20209;-74
2022/01/15 05:31:47;;;;;;;15.15;11.40;;;-3.00;99.90;;;;;;5051969;28;20205;-75
2022/01/15 05:34:14;;;;;;;13.90;11.05;;;-3.00;99.90;;;;;;5051133;28;20680;-74
2022/01/15 05:36:41;;;;;;;15.32;10.60;;;-3.00;99.90;;;;;;5050840;28;20201;-73
2022/01/15 05:39:07;;;;;;;14.25;10.75;;;-3.00;99.90;;;;;;5051659;28;20204;-74
2022/01/15 05:41:35;;;;;;;14.88;11.70;;;-3.10;99.90;;;;;;5051708;28;20209;-74
2022/01/15 05:44:03;;;;;;;14.60;11.18;;;-3.00;99.90;;;;;;5050994;28;20224;-74
2022/01/15 05:46:31;;;;;;;18.27;13.02;;;-3.00;99.90;;;;;;5051434;28;20227;-73
2022/01/15 05:48:58;;;;;;;19.90;11.18;;;-3.10;99.90;;;;;;5051684;28;20746;-75
2022/01/15 05:51:29;;;;;;;13.80;11.82;;;-3.00;99.90;;;;;;5051516;28;20212;-74
2022/01/15 05:53:56;;;;;;;18.38;11.73;;;-3.10;99.90;;;;;;5050815;28;20695;-74
2022/01/15 05:56:23;;;;;;;15.90;11.15;;;-3.00;99.90;;;;;;5051333;28;20205;-74
2022/01/15 05:58:49;;;;;;;15.88;11.43;;;-3.00;99.90;;;;;;5051187;28;20205;-74
2022/01/15 06:01:18;;;;;;;18.55;12.25;;;-3.00;99.90;;;;;;5056214;23;20238;-90
2022/01/15 06:03:45;;;;;;;14.18;12.10;;;-3.00;99.90;;;;;;5034293;28;20248;-91
2022/01/15 06:06:15;;;;;;;16.15;11.63;;;-3.00;99.90;;;;;;5035398;28;20233;-91
2022/01/15 06:08:42;;;;;;;15.27;11.82;;;-3.00;99.90;;;;;;5035076;28;20218;-93
2022/01/15 06:11:11;;;;;;;14.25;11.20;;;-3.00;99.90;;;;;;5035162;28;20237;-92
2022/01/15 06:13:38;;;;;;;15.68;12.02;;;-3.00;99.90;;;;;;5034550;28;20212;-92
2022/01/15 06:16:05;;;;;;;15.15;11.52;;;-3.10;99.90;;;;;;5034661;28;20221;-90
2022/01/15 06:18:34;;;;;;;17.75;11.38;;;-3.10;99.90;;;;;;5034483;28;20210;-91
2022/01/15 06:21:01;;;;;;;16.33;11.93;;;-3.10;99.90;;;;;;5038772;28;20221;-91
2022/01/15 06:23:28;;;;;;;13.70;10.82;;;-3.10;99.90;;;;;;5039551;28;20297;-92
2022/01/15 06:25:55;;;;;;;16.35;11.65;;;-3.10;99.90;;;;;;5045422;28;20205;-92
2022/01/15 06:29:12;;;;;;;14.85;11.85;;;-3.20;99.90;;;;;;5036679;28;20212;-93
2022/01/15 06:31:39;;;;;;;16.10;11.20;;;-3.10;99.90;;;;;;5035927;28;20208;-90
2022/01/15 06:34:08;;;;;;;13.75;10.32;;;-3.20;99.90;;;;;;5039468;28;20207;-91
2022/01/15 06:39:18;;;;;;;17.30;11.25;;;-3.20;99.90;;;;;;5036438;28;20201;-93
2022/01/15 06:44:49;;;;;;;15.63;10.32;;;-3.20;99.90;;;;;;5042673;28;20594;-93
2022/01/15 06:50:13;;;;;;;17.10;12.05;;;-3.20;99.90;;;;;;5034685;28;20456;-92
2022/01/15 06:52:40;;;;;;;15.57;12.18;;;-3.20;99.90;;;;;;5034886;28;20205;-94
2022/01/15 06:55:09;;;;;;;15.45;11.05;;;-3.10;99.90;;;;;;5035399;28;20752;-94
2022/01/15 06:57:56;;;;;;;16.95;11.88;;;-3.10;99.90;;;;;;5036607;28;20511;-90
2022/01/15 07:00:42;;;;;;;15.02;11.70;;;-3.20;99.90;;;;;;5037097;28;20488;-90
2022/01/15 07:03:09;;;;;;;18.83;13.13;;;-3.10;99.90;;;;;;5035683;28;20229;-91
2022/01/15 07:05:37;;;;;;;20.05;12.52;;;-2.90;99.90;;;;;;5034069;28;20194;-90
2022/01/15 07:08:04;;;;;;;16.15;11.55;;;-2.90;99.90;;;;;;5034254;28;20201;-90
2022/01/15 07:10:31;;;;;;;14.55;11.65;;;-2.90;99.90;;;;;;5033749;28;20226;-90
2022/01/15 07:12:58;;;;;;;17.30;11.85;;;-2.90;99.90;;;;;;5034303;28;20202;-92
2022/01/15 07:15:28;;;;;;;16.77;12.00;;;-3.00;99.90;;;;;;5032088;28;20218;-92
2022/01/15 07:17:59;;;;;;;16.27;11.25;;;-3.00;99.90;;;;;;5032271;28;20216;-89
2022/01/15 07:20:29;;;;;;;17.45;12.73;;;-3.00;99.90;;;;;;5032193;28;20233;-92
2022/01/15 07:23:08;;;;;;;15.43;12.18;;;-2.90;99.90;;;;;;5031237;28;20293;-92
2022/01/15 07:25:35;;;;;;;14.98;11.15;;;-3.00;99.90;;;;;;5033200;28;20207;-92
2022/01/15 07:28:02;;;;;;;15.32;11.43;;;-3.00;99.90;;;;;;5035165;28;20676;-91
2022/01/15 07:30:29;;;;;;;18.35;12.20;;;-2.90;99.90;;;;;;5037852;28;20710;-92
2022/01/15 07:33:01;;;;;;;17.30;11.70;;;-2.90;99.90;;;;;;5035213;28;20194;-91
2022/01/15 07:35:36;;;;;;;13.82;11.63;;;-2.80;99.90;;;;;;5032129;28;20710;-91
2022/01/15 07:38:11;;;;;;;15.57;11.30;;;-2.90;99.90;;;;;;5035490;28;20210;-92
2022/01/15 07:40:47;;;;;;;14.93;12.10;;;-2.80;99.90;;;;;;5039592;28;20694;-91
2022/01/15 07:43:14;;;;;;;13.73;10.75;;;-2.80;99.90;;;;;;5033399;28;20256;-93
2022/01/15 07:45:41;;;;;;;16.75;11.57;;;-2.80;99.90;;;;;;5033366;28;20210;-92
2022/01/15 07:48:08;;;;;;;13.45;12.05;;;-2.80;99.90;;;;;;5034339;28;20206;-92
2022/01/15 07:50:41;;;;;;;12.95;11.50;;;-2.70;99.90;;;;;;5033886;28;20232;-92
2022/01/15 07:53:14;;;;;;;12.52;10.73;;;-2.70;99.90;;;;;;5033526;28;20289;-90
2022/01/15 07:55:41;;;;;;;16.70;10.52;;;-2.60;99.90;;;;;;5048491;28;20321;-91
2022/01/15 08:01:02;;;;;;;16.27;12.95;;;-2.50;99.90;;;;;;5037324;28;20241;-91
2022/01/15 08:03:49;;;;;;;13.60;10.32;;;-2.30;99.90;;;;;;5039713;28;20229;-93
2022/01/15 08:06:35;;;;;;;15.93;12.88;;;-2.10;99.90;;;;;;5040826;28;20492;-93
2022/01/15 08:09:36;;;;;;;18.20;12.65;;;-1.80;99.90;;;;;;5025725;28;20203;-94
2022/01/15 08:12:11;;;;;;;13.90;11.00;;;-1.40;99.90;;;;;;5017536;28;20205;-94
2022/01/15 08:14:43;;;;;;;12.25;10.00;;;-1.00;99.90;;;;;;5029846;28;20226;-94
2022/01/15 08:17:10;;;;;;;13.18;10.30;;;-0.60;99.90;;;;;;5009073;28;20214;-92
2022/01/15 08:19:42;;;;;;;15.40;11.13;;;-0.30;99.90;;;;;;5024196;28;20215;-92
2022/01/15 08:22:12;;;;;;;12.70;9.60;;;0.10;99.90;;;;;;5025456;28;20360;-94
2022/01/15 08:24:44;;;;;;;15.70;10.15;;;0.60;99.90;;;;;;5031524;28;20178;-93
2022/01/15 08:27:11;;;;;;;14.27;10.57;;;1.40;99.90;;;;;;5021632;28;20314;-95
2022/01/15 08:29:41;;;;;;;15.23;11.25;;;2.60;99.90;;;;;;5020303;28;20217;-95
2022/01/15 08:34:56;;;;;;;11.75;9.18;;;4.40;99.90;;;;;;5009687;28;20586;-95
2022/01/15 08:37:25;;;;;;;14.52;9.57;;;5.60;99.90;;;;;;5005396;28;20206;-94
2022/01/15 08:39:59;;;;;;;10.38;9.27;;;6.80;99.90;;;;;;5016971;28;20304;-94
2022/01/15 08:42:32;;;;;;;10.40;9.30;;;7.90;99.90;;;;;;5010560;28;20308;-94
2022/01/15 08:45:00;;;;;;;11.85;9.77;;;8.90;99.90;;;;;;5008457;28;20207;-92
2022/01/15 08:47:31;;;;;;;12.38;9.68;;;9.60;99.60;;;;;;5006709;28;20195;-92
2022/01/15 08:50:01;;;;;;;12.23;10.23;;;9.80;99.10;;;;;;5007925;28;20268;-92
2022/01/15 08:52:28;;;;;;;11.43;10.18;;;9.80;98.40;;;;;;5004585;28;20318;-92
2022/01/15 08:55:05;;;;;;;11.35;10.15;;;9.70;98.10;;;;;;5006032;28;20529;-92
2022/01/15 08:57:38;;;;;;;12.88;9.23;;;9.60;98.30;;;;;;5004309;28;20662;-92
2022/01/15 09:00:08;;;;;;;12.00;10.80;;;9.50;98.10;;;;;;5005575;28;20594;-92
2022/01/15 09:02:43;;;;;;;14.50;11.75;;;9.50;98.20;;;;;;5003883;28;20202;-92
2022/01/15 09:05:16;;;;;;;13.00;9.93;;;9.40;98.50;;;;;;5003082;28;20601;-91
2022/01/15 09:07:45;;;;;;;12.48;10.45;;;9.30;98.60;;;;;;5007066;28;20920;-92
2022/01/15 09:10:41;;;;;;;15.05;10.68;;;9.40;98.60;;;;;;5008042;28;20587;-91
2022/01/15 09:13:11;;;;;;;13.07;11.77;;;9.30;98.70;;;;;;5008072;28;20671;-92
2022/01/15 09:15:41;;;;;;;14.13;12.63;;;9.20;98.80;;;;;;5003627;28;20455;-90
2022/01/15 09:18:08;;;;;;;14.88;13.38;;;8.90;99.20;;;;;;5004779;28;20464;-89
2022/01/15 09:20:34;;;;;;;14.20;12.55;;;8.40;99.50;;;;;;4997879;28;20574;-90
2022/01/15 09:23:04;;;;;;;14.50;13.10;;;8.30;99.80;;;;;;4993766;28;20203;-90
2022/01/15 09:25:33;;;;;;;13.90;11.75;;;8.80;99.90;;;;;;4994367;28;20631;-88
2022/01/15 09:30:44;;;;;;;13.55;12.15;;;12.40;96.60;;;;;;5014343;28;20307;-91
2022/01/15 09:33:22;;;;;;;13.90;12.50;;;14.60;94.90;;;;;;5014413;28;20686;-91
2022/01/15 09:35:49;;;;;;;13.47;12.17;;;16.30;92.60;;;;;;5015502;28;20226;-90
2022/01/15 09:38:16;;;;;;;14.87;12.03;;;17.80;90.80;;;;;;5011940;28;20465;-90
2022/01/15 09:40:45;;;;;;;14.73;13.33;;;18.90;89.20;;;;;;5012158;28;20485;-90
2022/01/15 09:43:13;;;;;;;13.53;12.20;;;19.70;86.60;;;;;;5012258;28;20457;-90
2022/01/15 09:45:40;;;;;;;13.43;12.23;;;20.10;85.30;;;;;;5012169;28;20468;-89
2022/01/15 09:48:08;;;;;;;13.17;11.97;;;20.10;84.10;;;;;;5012371;28;20454;-89
2022/01/15 09:50:38;;;;;;;14.13;12.77;;;19.70;84.10;;;;;;5012610;28;20482;-90
2022/01/15 09:53:05;;;;;;;14.20;12.70;;;19.80;84.00;;;;;;5012709;28;20469;-90
2022/01/15 09:55:32;;;;;;;12.40;11.30;;;20.20;83.30;;;;;;5013460;28;20469;-90
2022/01/15 09:58:00;;;;;;;14.13;12.83;;;19.80;82.80;;;;;;5013634;28;20461;-90
2022/01/15 10:00:27;;;;;;;14.87;13.37;;;20.20;82.70;;;;;;5012777;28;20500;-90
2022/01/15 10:02:55;;;;;;;14.83;13.17;;;19.80;82.90;;;;;;5012172;28;20465;-90
2022/01/15 10:05:22;;;;;;;14.93;13.30;;;19.40;85.20;;;;;;5012527;28;20512;-90
2022/01/15 10:08:00;;;;;;;14.67;13.27;;;19.40;83.50;;;;;;5012893;28;20515;-90
2022/01/15 10:10:29;;;;;;;14.30;13.00;;;19.40;83.10;;;;;;5013919;28;20595;-91
2022/01/15 10:12:56;;;;;;;13.23;11.83;;;20.00;83.20;;;;;;5009576;28;20458;-93
2022/01/15 10:15:24;;;;;;;16.10;14.40;;;20.20;82.10;;;;;;5003630;28;20462;-93
2022/01/15 10:17:51;;;;;;;15.70;14.00;;;20.30;81.60;;;;;;5005291;28;20454;-93
2022/01/15 10:20:21;;;;;;;14.00;12.53;;;20.70;80.80;;;;;;5003873;28;20490;-92
2022/01/15 10:22:51;;;;;;;14.30;12.80;;;21.30;80.40;;;;;;5000938;28;20839;-93
2022/01/15 10:25:21;;;;;;;12.80;11.40;;;22.00;79.70;;;;;;4997020;28;20490;-91
2022/01/15 10:27:51;;;;;;;11.97;10.70;;;21.80;80.80;;;;;;4994652;28;20476;-90
2022/01/15 10:30:20;;;;;;;13.40;12.20;;;22.30;78.30;;;;;;4998113;28;20477;-89
2022/01/15 10:32:58;;;;;;;12.67;11.47;;;22.80;78.20;;;;;;4991394;28;20516;-89
2022/01/15 10:35:26;;;;;;;13.43;12.03;;;23.30;76.60;;;;;;4991085;28;20472;-89
2022/01/15 10:37:58;;;;;;;13.43;12.20;;;23.10;77.50;;;;;;4995307;28;20464;-90
2022/01/15 10:40:27;;;;;;;14.13;11.50;;;23.10;77.10;;;;;;5025513;28;20469;-91
2022/01/15 10:43:00;;;;;;;12.97;11.73;;;23.40;75.50;;;;;;5022530;28;20468;-92
2022/01/15 10:45:31;;;;;;;11.77;10.50;;;23.20;75.40;;;;;;5013916;28;20519;-92
2022/01/15 10:48:02;;;;;;;11.77;10.70;;;23.30;73.50;;;;;;5015406;28;20531;-93
2022/01/15 10:50:30;;;;;;;12.97;11.67;;;22.70;75.80;;;;;;5013991;28;20481;-92
2022/01/15 10:52:59;;;;;;;12.47;11.27;;;22.30;76.40;;;;;;5013716;28;20461;-92
2022/01/15 10:55:28;;;;;;;13.60;12.00;;;22.80;74.80;;;;;;5013753;28;20548;-92
2022/01/15 10:57:57;;;;;;;14.67;13.07;;;22.90;73.60;;;;;;5014625;28;20524;-92
2022/01/15 11:00:26;;;;;;;14.77;13.47;;;22.70;74.80;;;;;;5013913;28;20551;-92
2022/01/15 11:02:55;;;;;;;13.17;11.87;;;22.70;75.10;;;;;;5011803;28;20469;-91
2022/01/15 11:05:32;;;;;;;14.10;12.30;;;22.50;74.20;;;;;;5012418;28;20453;-91
2022/01/15 11:08:25;;;;;;;14.20;12.67;;;22.20;73.40;;;;;;5013208;28;20492;-91
2022/01/15 11:10:54;;;;;;;16.03;11.67;;;21.80;74.40;;;;;;5012923;28;20477;-91
2022/01/15 11:13:23;;;;;;;13.50;11.53;;;21.20;75.40;;;;;;5012599;28;20461;-91
2022/01/15 11:15:54;;;;;;;12.03;10.77;;;20.90;75.70;;;;;;5013402;28;20463;-92
2022/01/15 11:18:22;;;;;;;13.20;11.80;;;21.10;74.20;;;;;;5013551;28;20462;-92
2022/01/15 11:20:55;;;;;;;13.30;12.00;;;20.80;75.00;;;;;;5012953;28;20485;-91
2022/01/15 11:23:25;;;;;;;11.30;10.10;;;20.70;76.30;;;;;;5014359;28;20469;-91
2022/01/15 11:25:54;;;;;;;13.40;12.07;;;20.60;76.50;;;;;;5022575;28;20484;-92
2022/01/15 11:28:22;;;;;;;13.23;10.73;;;20.60;76.50;;;;;;5019367;28;20457;-93
2022/01/15 11:33:40;;;;;;;12.33;11.23;;;20.30;77.70;;;;;;5013553;28;20469;-92
2022/01/15 11:36:27;;;;;;;14.17;12.73;;;20.20;77.80;;;;;;5016437;28;20836;-92
2022/01/15 11:38:54;;;;;;;12.60;11.23;;;20.30;77.60;;;;;;5020038;28;20545;-91
2022/01/15 11:41:39;;;;;;;12.20;10.47;;;20.50;76.50;;;;;;5017729;28;20485;-92
2022/01/15 11:44:07;;;;;;;13.53;10.80;;;20.50;75.40;;;;;;5018758;28;20472;-92
2022/01/15 11:46:41;;;;;;;11.70;10.60;;;20.00;75.50;;;;;;5004304;28;20842;-91
2022/01/15 11:49:31;;;;;;;14.10;12.10;;;19.50;75.30;;;;;;5005220;28;20461;-91
2022/01/15 11:52:47;;;;;;;16.50;13.37;;;18.50;77.00;;;;;;5018534;28;20968;-91
2022/01/15 11:55:20;;;;;;;14.03;12.53;;;17.80;78.40;;;;;;5016733;28;20584;-91
2022/01/15 11:57:56;;;;;;;17.80;13.83;;;17.40;79.80;;;;;;5017276;28;20465;-92
2022/01/15 12:00:42;;;;;;;16.13;12.73;;;16.90;80.20;;;;;;5044349;23;20988;-92
2022/01/15 12:03:16;;;;;;;19.10;13.50;;;16.40;80.70;;;;;;5034359;28;20479;-91
2022/01/15 12:05:59;;;;;;;15.33;13.50;;;16.30;82.10;;;;;;5040023;28;20465;-93
2022/01/15 12:08:32;;;;;;;15.70;13.63;;;16.60;81.10;;;;;;5042026;28;20460;-90
2022/01/15 12:11:45;;;;;;;17.53;14.17;;;16.90;81.50;;;;;;5044196;28;20480;-92
2022/01/15 12:14:47;;;;;;;18.97;14.57;;;17.20;79.70;;;;;;5043828;28;20459;-91
2022/01/15 12:21:24;;;;;;;14.73;13.20;;;17.30;79.90;;;;;;5058802;28;20538;-91
2022/01/15 12:23:53;;;;;;;14.40;12.70;;;17.20;80.10;;;;;;5058194;28;20456;-89
2022/01/15 12:26:58;;;;;;;15.63;13.97;;;16.90;79.90;;;;;;5056913;28;20539;-89
2022/01/15 12:30:06;;;;;;;16.63;13.67;;;16.50;80.50;;;;;;5055248;23;20515;-73
2022/01/15 12:32:38;;;;;;;16.30;13.57;;;16.10;81.20;;;;;;5052007;23;21327;-72
2022/01/15 12:35:15;;;;;;;14.70;12.70;;;15.90;82.30;;;;;;5016838;28;20491;-72
2022/01/15 12:38:05;;;;;;;14.87;13.20;;;15.40;83.20;;;;;;5016705;28;20859;-72
2022/01/15 12:40:36;;;;;;;15.23;13.70;;;15.10;83.70;;;;;;5030561;28;20464;-72
2022/01/15 12:45:32;;;;;;;15.68;13.15;;;14.10;85.40;;;;;;4994828;28;21312;-72
2022/01/15 12:47:59;;;;;;;15.00;13.15;;;13.70;86.20;;;;;;4993816;28;20254;-71
2022/01/15 12:50:27;;;;;;;16.63;14.27;;;13.60;86.60;;;;;;5008789;28;20406;-70
2022/01/15 12:53:02;;;;;;;16.75;13.65;;;13.60;87.00;;;;;;5007812;28;20864;-71
2022/01/15 12:55:30;;;;;;;19.98;14.10;;;13.40;87.60;;;;;;5006804;28;20224;-72
2022/01/15 12:57:58;;;;;;;16.75;13.85;;;13.30;88.10;;;;;;5009819;28;20199;-71
2022/01/15 13:00:26;;;;;;;17.45;13.55;;;13.10;88.70;;;;;;4999388;28;20211;-71
2022/01/15 13:02:55;;;;;;;15.93;13.65;;;12.90;88.70;;;;;;4979823;28;20214;-72
2022/01/15 13:05:25;;;;;;;16.60;14.90;;;12.90;89.40;;;;;;4993285;28;20254;-72
2022/01/15 13:07:55;;;;;;;18.70;14.63;;;13.00;89.30;;;;;;4984309;28;20351;-73
2022/01/15 13:10:46;;;;;;;16.13;14.43;;;13.20;89.00;;;;;;4985215;28;20871;-72
2022/01/15 13:13:27;;;;;;;16.02;14.10;;;13.30;88.80;;;;;;4995858;28;20241;-72
2022/01/15 13:16:03;;;;;;;18.27;14.68;;;13.10;89.00;;;;;;4977739;28;20294;-72
2022/01/15 13:18:32;;;;;;;19.02;14.27;;;12.60;89.90;;;;;;4992072;28;20308;-71
2022/01/15 13:21:00;;;;;;;17.45;14.20;;;12.40;90.50;;;;;;4994454;28;20203;-72
2022/01/15 13:23:36;;;;;;;17.88;14.70;;;12.40;90.40;;;;;;4992352;28;20222;-72
2022/01/15 13:26:03;;;;;;;15.82;14.13;;;12.40;90.30;;;;;;4978619;28;20202;-73
2022/01/15 13:28:33;;;;;;;15.27;13.75;;;12.40;90.30;;;;;;5000565;28;20801;-73